首页
METAR-TAF:

METAR-TAF

机场 :

久爾貝勒, 塞内加尔

纬度: 14-39N, 经度: 016-14W, 海拔: 7米

当前天气观测

该预报发布于2小时和34分钟前的19:00 UTC
风速16节,风向西
温度 35°C
湿度 47%
气压 1009 hPa
能见度10公里或以上
1500米以下无云,无积雨云

METAR: GOOD 231900Z 28016KT CAVOK 35/22 Q1009

时间: 21:34 (21:34 UTC)


TAF: 丢失

超过4000个机场的气象观测和天气预报(METAR&TAF报告)。

可查询的气象台以黄色和红色小点在地图上表示。

将鼠标移到小点上方,可查看气象台名称。

然后点击查看天气观测和预报。

如需切换地图:点击带黑十字的绿色按钮放大地图;点击带横线的绿色按钮缩小地图;或者点击绿色箭头查看邻近地区的地图。


METAR-TAF: